createdAt,value
2019-02-06T00:01:02.342Z,14.07
2019-02-06T00:02:15.165Z,12.25
2019-02-06T00:03:22.427Z,13.20
2019-02-06T00:04:27.563Z,14.65
2019-02-06T00:05:32.432Z,13.20
2019-02-06T00:06:37.297Z,14.43
2019-02-06T00:07:42.801Z,15.53
2019-02-06T00:08:47.884Z,14.25
2019-02-06T00:09:52.954Z,13.40
2019-02-06T00:10:58.091Z,15.68
2019-02-06T00:12:03.338Z,12.35
2019-02-06T00:13:08.970Z,12.33
2019-02-06T00:14:13.761Z,14.80
2019-02-06T00:15:18.643Z,13.28
2019-02-06T00:16:23.833Z,16.17
2019-02-06T00:17:28.344Z,12.37
2019-02-06T00:18:35.959Z,13.13
2019-02-06T00:19:41.122Z,16.30
2019-02-06T00:20:46.474Z,15.20
2019-02-06T00:21:51.431Z,16.17
2019-02-06T00:22:56.835Z,16.10
2019-02-06T00:24:01.936Z,11.18
2019-02-06T00:25:06.588Z,16.73
2019-02-06T00:26:11.681Z,13.48
2019-02-06T00:27:16.821Z,13.75
2019-02-06T00:28:21.584Z,13.48
2019-02-06T00:29:27.004Z,14.83
2019-02-06T00:30:35.158Z,14.60
2019-02-06T00:31:40.519Z,12.82
2019-02-06T00:32:45.307Z,14.30
2019-02-06T00:33:50.672Z,13.83
2019-02-06T00:34:55.517Z,14.53
2019-02-06T00:36:00.306Z,12.63
2019-02-06T00:37:05.262Z,14.83
2019-02-06T00:38:10.056Z,13.62
2019-02-06T00:39:14.838Z,13.03
2019-02-06T00:40:19.635Z,13.35
2019-02-06T00:41:24.419Z,12.50
2019-02-06T00:42:29.637Z,13.65
2019-02-06T00:43:34.770Z,13.58
2019-02-06T00:44:39.255Z,14.50
2019-02-06T00:45:44.379Z,12.53
2019-02-06T00:46:49.149Z,12.50
2019-02-06T00:47:53.943Z,12.68
2019-02-06T00:48:58.881Z,11.65
2019-02-06T00:50:04.037Z,13.48
2019-02-06T00:51:09.224Z,12.85
2019-02-06T00:52:14.320Z,13.13
2019-02-06T00:53:19.733Z,14.98
2019-02-06T00:54:24.877Z,14.05
2019-02-06T00:55:29.649Z,13.60
2019-02-06T00:56:35.244Z,12.45
2019-02-06T00:57:40.368Z,12.65
2019-02-06T00:58:45.163Z,15.43
2019-02-06T00:59:50.254Z,14.30
2019-02-06T01:00:55.720Z,14.00
2019-02-06T01:02:00.668Z,15.05
2019-02-06T01:03:05.495Z,12.58
2019-02-06T01:04:11.148Z,14.85
2019-02-06T01:05:16.203Z,12.80
2019-02-06T01:06:21.384Z,12.78
2019-02-06T01:07:26.552Z,13.62
2019-02-06T01:08:31.853Z,13.22
2019-02-06T01:09:36.639Z,15.08
2019-02-06T01:10:41.699Z,13.22
2019-02-06T01:11:46.796Z,13.38
2019-02-06T01:12:51.598Z,12.73
2019-02-06T01:13:56.364Z,15.23
2019-02-06T01:15:01.152Z,13.45
2019-02-06T01:16:06.302Z,14.33
2019-02-06T01:17:11.070Z,16.02
2019-02-06T01:18:15.890Z,12.55
2019-02-06T01:19:20.660Z,15.65
2019-02-06T01:20:25.448Z,15.28
2019-02-06T01:21:30.310Z,13.53
2019-02-06T01:22:35.766Z,13.80
2019-02-06T01:23:40.313Z,14.23
2019-02-06T01:24:45.209Z,13.20
2019-02-06T01:25:50.306Z,13.05
2019-02-06T01:26:56.390Z,14.78
2019-02-06T01:28:01.194Z,21.17
2019-02-06T01:29:06.416Z,13.80
2019-02-06T01:30:14.859Z,13.88
2019-02-06T01:31:23.717Z,13.18
2019-02-06T01:32:28.859Z,13.20
2019-02-06T01:33:33.972Z,13.95
2019-02-06T01:34:38.827Z,11.90
2019-02-06T01:35:49.903Z,13.00
2019-02-06T01:36:50.616Z,14.00
2019-02-06T01:37:55.711Z,13.05
2019-02-06T01:39:00.567Z,12.13
2019-02-06T01:40:06.139Z,13.60
2019-02-06T01:41:11.563Z,13.28
2019-02-06T01:42:16.385Z,13.18
2019-02-06T01:43:21.524Z,16.37
2019-02-06T01:44:27.398Z,12.98
2019-02-06T01:45:32.221Z,15.35
2019-02-06T01:46:37.286Z,11.95
2019-02-06T01:47:42.928Z,14.75
2019-02-06T01:48:48.054Z,13.60
2019-02-06T01:49:53.353Z,14.98
2019-02-06T01:50:58.440Z,12.45
2019-02-06T01:52:03.212Z,12.45
2019-02-06T01:53:08.037Z,13.55
2019-02-06T01:54:12.839Z,13.72
2019-02-06T01:55:17.653Z,14.50
2019-02-06T01:56:22.436Z,14.10
2019-02-06T01:57:27.270Z,11.63
2019-02-06T01:58:32.375Z,14.93
2019-02-06T01:59:37.325Z,13.05
2019-02-06T02:00:42.557Z,12.28
2019-02-06T02:01:47.687Z,17.02
2019-02-06T02:02:52.760Z,15.18
2019-02-06T02:03:57.759Z,14.50
2019-02-06T02:05:03.410Z,13.00
2019-02-06T02:06:08.568Z,14.75
2019-02-06T02:07:13.364Z,13.75
2019-02-06T02:08:18.160Z,14.03
2019-02-06T02:09:23.631Z,13.53
2019-02-06T02:10:28.837Z,12.55
2019-02-06T02:11:34.022Z,13.72
2019-02-06T02:12:38.810Z,13.93
2019-02-06T02:13:43.629Z,13.28
2019-02-06T02:14:48.712Z,12.65
2019-02-06T02:15:53.610Z,13.65
2019-02-06T02:16:59.158Z,15.50
2019-02-06T02:18:04.294Z,12.50
2019-02-06T02:19:09.994Z,12.55
2019-02-06T02:20:17.271Z,14.47
2019-02-06T02:21:22.210Z,14.33
2019-02-06T02:22:27.347Z,12.98
2019-02-06T02:23:32.217Z,14.95
2019-02-06T02:24:37.709Z,14.07
2019-02-06T02:25:43.539Z,14.03
2019-02-06T02:26:48.618Z,13.00
2019-02-06T02:27:53.110Z,12.93
2019-02-06T02:28:57.887Z,13.15
2019-02-06T02:30:02.690Z,13.78
2019-02-06T02:31:07.172Z,11.60
2019-02-06T02:32:12.251Z,10.75
2019-02-06T02:33:17.065Z,11.50
2019-02-06T02:34:22.255Z,11.48
2019-02-06T02:35:27.451Z,12.78
2019-02-06T02:36:35.102Z,13.68
2019-02-06T02:37:39.990Z,14.10
2019-02-06T02:38:45.180Z,12.88
2019-02-06T02:39:50.737Z,14.03
2019-02-06T02:40:56.255Z,12.47
2019-02-06T02:42:01.394Z,13.32
2019-02-06T02:43:06.593Z,13.75
2019-02-06T02:44:11.846Z,11.65
2019-02-06T02:45:17.792Z,13.28
2019-02-06T02:46:23.311Z,12.85
2019-02-06T02:47:29.129Z,13.03
2019-02-06T02:48:34.794Z,12.03
2019-02-06T02:49:39.642Z,12.85
2019-02-06T02:50:44.802Z,13.03
2019-02-06T02:51:49.576Z,12.20
2019-02-06T02:52:54.090Z,17.77
2019-02-06T02:53:59.615Z,13.75
2019-02-06T02:55:04.721Z,11.97
2019-02-06T02:56:09.501Z,12.23
2019-02-06T02:57:15.010Z,14.90
2019-02-06T02:58:20.140Z,14.05
2019-02-06T02:59:24.972Z,12.95
2019-02-06T03:00:43.891Z,13.35
2019-02-06T03:02:13.398Z,15.43
2019-02-06T03:03:32.982Z,14.50
2019-02-06T03:04:45.058Z,12.33
2019-02-06T03:05:49.850Z,14.70
2019-02-06T03:06:55.671Z,14.23
2019-02-06T03:08:00.916Z,14.00
2019-02-06T03:09:09.486Z,14.07
2019-02-06T03:10:14.278Z,17.05
2019-02-06T03:11:19.416Z,14.03
2019-02-06T03:12:24.374Z,13.68
2019-02-06T03:13:30.201Z,12.98
2019-02-06T03:14:35.664Z,13.48
2019-02-06T03:15:41.212Z,12.35
2019-02-06T03:16:46.438Z,14.15
2019-02-06T03:17:50.935Z,13.88
2019-02-06T03:18:55.705Z,13.10
2019-02-06T03:20:00.806Z,15.68
2019-02-06T03:21:05.606Z,13.53
2019-02-06T03:22:10.400Z,12.63
2019-02-06T03:23:14.952Z,12.60
2019-02-06T03:24:20.605Z,12.18
2019-02-06T03:25:25.450Z,13.32
2019-02-06T03:26:30.268Z,12.15
2019-02-06T03:27:35.772Z,14.98
2019-02-06T03:28:40.633Z,13.70
2019-02-06T03:29:45.567Z,15.50
2019-02-06T03:30:50.048Z,13.60
2019-02-06T03:31:54.837Z,13.65
2019-02-06T03:32:59.980Z,13.98
2019-02-06T03:34:05.124Z,14.20
2019-02-06T03:35:09.955Z,13.05
2019-02-06T03:36:15.026Z,13.45
2019-02-06T03:37:20.493Z,12.75
2019-02-06T03:38:25.898Z,14.85
2019-02-06T03:39:30.697Z,14.15
2019-02-06T03:40:35.494Z,15.65
2019-02-06T03:41:40.669Z,15.30
2019-02-06T03:42:45.751Z,13.35
2019-02-06T03:43:50.965Z,14.33
2019-02-06T03:44:55.458Z,13.50
2019-02-06T03:46:00.560Z,14.50
2019-02-06T03:47:05.382Z,15.68
2019-02-06T03:48:10.155Z,14.40
2019-02-06T03:49:15.174Z,14.10
2019-02-06T03:50:19.990Z,13.75
2019-02-06T03:51:24.757Z,13.53
2019-02-06T03:52:31.977Z,18.60
2019-02-06T03:53:36.872Z,14.58
2019-02-06T03:54:42.066Z,13.48
2019-02-06T03:55:47.538Z,14.47
2019-02-06T03:56:52.687Z,14.75
2019-02-06T03:57:57.486Z,14.33
2019-02-06T03:59:02.592Z,13.08
2019-02-06T04:00:09.272Z,15.25
2019-02-06T04:01:15.350Z,17.00
2019-02-06T04:02:20.714Z,12.70
2019-02-06T04:03:27.156Z,15.70
2019-02-06T04:04:32.063Z,18.17
2019-02-06T04:05:36.893Z,13.40
2019-02-06T04:06:52.778Z,14.70
2019-02-06T04:07:47.896Z,12.13
2019-02-06T04:08:53.086Z,16.27
2019-02-06T04:09:57.880Z,14.85
2019-02-06T04:11:03.045Z,17.67
2019-02-06T04:12:08.467Z,14.90
2019-02-06T04:13:13.535Z,16.10
2019-02-06T04:14:18.300Z,18.85
2019-02-06T04:15:24.150Z,16.27
2019-02-06T04:16:29.634Z,14.65
2019-02-06T04:17:34.913Z,16.50
2019-02-06T04:18:39.720Z,19.55
2019-02-06T04:19:44.625Z,15.23
2019-02-06T04:20:49.172Z,18.15
2019-02-06T04:21:54.889Z,16.20
2019-02-06T04:23:00.643Z,14.75
2019-02-06T04:24:05.845Z,16.05
2019-02-06T04:25:10.916Z,15.40
2019-02-06T04:26:16.091Z,15.85
2019-02-06T04:27:20.871Z,16.12
2019-02-06T04:28:25.644Z,16.20
2019-02-06T04:29:30.479Z,14.30
2019-02-06T04:30:35.326Z,14.65
2019-02-06T04:31:40.495Z,15.68
2019-02-06T04:32:45.400Z,13.65
2019-02-06T04:33:50.338Z,17.05
2019-02-06T04:34:55.525Z,14.40
2019-02-06T04:36:00.538Z,15.78
2019-02-06T04:37:06.879Z,15.28
2019-02-06T04:38:11.448Z,15.85
2019-02-06T04:39:16.671Z,15.32
2019-02-06T04:40:21.505Z,17.92
2019-02-06T04:41:26.998Z,15.93
2019-02-06T04:42:32.623Z,16.55
2019-02-06T04:43:37.436Z,15.65
2019-02-06T04:44:42.982Z,17.70
2019-02-06T04:45:47.911Z,14.43
2019-02-06T04:46:53.227Z,16.90
2019-02-06T04:47:58.334Z,15.20
2019-02-06T04:49:03.149Z,17.30
2019-02-06T04:50:09.191Z,15.53
2019-02-06T04:51:14.353Z,15.72
2019-02-06T04:52:19.141Z,16.87
2019-02-06T04:53:24.327Z,16.90
2019-02-06T04:54:29.972Z,19.57
2019-02-06T04:55:35.179Z,17.87
2019-02-06T04:56:40.356Z,15.78
2019-02-06T04:57:45.242Z,16.23
2019-02-06T04:58:50.373Z,17.23
2019-02-06T04:59:55.152Z,15.45
2019-02-06T05:01:00.578Z,16.52
2019-02-06T05:02:05.076Z,18.95
2019-02-06T05:03:10.528Z,15.72
2019-02-06T05:04:15.024Z,19.07
2019-02-06T05:05:19.532Z,16.37
2019-02-06T05:06:24.337Z,17.20
2019-02-06T05:07:29.956Z,17.98
2019-02-06T05:08:34.732Z,18.52
2019-02-06T05:09:40.648Z,18.65
2019-02-06T05:10:45.782Z,15.43
2019-02-06T05:11:50.656Z,16.60
2019-02-06T05:12:55.780Z,16.62
2019-02-06T05:14:01.373Z,18.73
2019-02-06T05:15:06.600Z,16.60
2019-02-06T05:16:11.113Z,16.70
2019-02-06T05:17:16.281Z,15.93
2019-02-06T05:18:21.301Z,18.52
2019-02-06T05:19:26.660Z,15.35
2019-02-06T05:20:39.520Z,20.43
2019-02-06T05:21:45.002Z,18.40
2019-02-06T05:22:50.199Z,21.02
2019-02-06T05:23:56.163Z,16.35
2019-02-06T05:25:01.393Z,15.03
2019-02-06T05:26:05.899Z,17.77
2019-02-06T05:27:11.087Z,18.60
2019-02-06T05:28:18.289Z,15.80
2019-02-06T05:29:22.252Z,18.45
2019-02-06T05:30:27.056Z,18.90
2019-02-06T05:31:32.278Z,16.20
2019-02-06T05:32:42.789Z,14.80
2019-02-06T05:33:45.155Z,17.42
2019-02-06T05:34:50.108Z,16.62
2019-02-06T05:35:55.226Z,17.40
2019-02-06T05:37:00.441Z,15.88
2019-02-06T05:38:05.258Z,19.10
2019-02-06T05:39:10.497Z,17.05
2019-02-06T05:40:15.005Z,18.32
2019-02-06T05:41:21.045Z,16.75
2019-02-06T05:42:25.856Z,20.25
2019-02-06T05:43:30.730Z,16.12
2019-02-06T05:44:35.550Z,15.90
2019-02-06T05:45:40.782Z,18.00
2019-02-06T05:46:45.894Z,17.32
2019-02-06T05:47:50.413Z,19.23
2019-02-06T05:48:55.282Z,18.05
2019-02-06T05:50:00.493Z,17.77
2019-02-06T05:51:05.621Z,16.10
2019-02-06T05:52:10.712Z,17.50
2019-02-06T05:53:16.227Z,18.60
2019-02-06T05:54:21.390Z,18.25
2019-02-06T05:55:26.591Z,19.73
2019-02-06T05:56:31.426Z,15.65
2019-02-06T05:57:36.919Z,15.45
2019-02-06T05:58:42.730Z,17.05
2019-02-06T05:59:48.058Z,18.05
2019-02-06T06:00:52.908Z,18.55
2019-02-06T06:01:57.688Z,17.65
2019-02-06T06:03:02.764Z,18.82
2019-02-06T06:04:07.556Z,15.23
2019-02-06T06:05:12.800Z,17.48
2019-02-06T06:06:17.595Z,19.40
2019-02-06T06:07:22.374Z,16.27
2019-02-06T06:08:27.562Z,17.10
2019-02-06T06:09:32.696Z,17.35
2019-02-06T06:10:37.678Z,17.07
2019-02-06T06:11:42.873Z,16.77
2019-02-06T06:12:47.968Z,21.10
2019-02-06T06:13:53.221Z,16.62
2019-02-06T06:14:58.400Z,17.35
2019-02-06T06:16:03.173Z,17.00
2019-02-06T06:17:08.586Z,18.73
2019-02-06T06:18:13.680Z,15.23
2019-02-06T06:19:19.201Z,16.00
2019-02-06T06:20:23.720Z,18.92
2019-02-06T06:21:28.216Z,19.37
2019-02-06T06:22:33.124Z,17.75
2019-02-06T06:23:38.017Z,19.75
2019-02-06T06:24:43.139Z,16.70
2019-02-06T06:25:48.565Z,16.07
2019-02-06T06:26:54.211Z,17.25
2019-02-06T06:27:59.378Z,15.45
2019-02-06T06:29:04.180Z,18.48
2019-02-06T06:30:14.440Z,16.37
2019-02-06T06:31:19.299Z,17.62
2019-02-06T06:32:23.806Z,18.80
2019-02-06T06:33:29.804Z,17.25
2019-02-06T06:34:35.145Z,17.07
2019-02-06T06:35:40.452Z,18.48
2019-02-06T06:36:45.688Z,21.52
2019-02-06T06:38:00.729Z,15.10
2019-02-06T06:38:58.005Z,17.60
2019-02-06T06:40:03.183Z,19.82
2019-02-06T06:41:08.049Z,14.83
2019-02-06T06:42:13.196Z,16.45
2019-02-06T06:43:17.692Z,17.20
2019-02-06T06:44:22.831Z,20.08
2019-02-06T06:45:27.922Z,17.73
2019-02-06T06:46:33.139Z,16.73
2019-02-06T06:47:38.007Z,17.90
2019-02-06T06:48:42.820Z,18.92
2019-02-06T06:49:48.052Z,16.90
2019-02-06T06:50:53.670Z,15.32
2019-02-06T06:51:58.487Z,17.62
2019-02-06T06:53:03.966Z,20.37
2019-02-06T06:54:08.874Z,21.07
2019-02-06T06:55:14.241Z,21.15
2019-02-06T06:56:19.832Z,19.40
2019-02-06T06:57:24.608Z,17.85
2019-02-06T06:58:29.392Z,19.23
2019-02-06T06:59:34.657Z,20.05
2019-02-06T07:00:39.417Z,16.93
2019-02-06T07:01:44.201Z,19.62
2019-02-06T07:02:48.703Z,17.80
2019-02-06T07:03:53.940Z,18.20
2019-02-06T07:04:59.051Z,19.87
2019-02-06T07:16:22.232Z,17.42
2019-02-06T07:17:27.070Z,17.95
2019-02-06T07:18:31.955Z,17.37
2019-02-06T07:19:36.262Z,17.48
2019-02-06T07:20:40.808Z,15.30
2019-02-06T07:21:45.117Z,15.53
2019-02-06T07:22:49.677Z,17.02
2019-02-06T07:23:55.122Z,16.95
2019-02-06T07:24:59.717Z,18.17
2019-02-06T07:26:03.787Z,17.90
2019-02-06T07:27:08.658Z,19.12
2019-02-06T07:28:13.039Z,17.70
2019-02-06T07:29:17.330Z,16.57
2019-02-06T07:30:29.505Z,17.37
2019-02-06T07:31:33.897Z,19.50
2019-02-06T07:32:38.498Z,16.20
2019-02-06T07:33:43.080Z,17.90
2019-02-06T07:34:47.153Z,19.50
2019-02-06T07:35:51.992Z,16.15
2019-02-06T07:36:56.275Z,19.20
2019-02-06T07:38:01.303Z,16.67
2019-02-06T07:39:08.694Z,18.52
2019-02-06T07:40:13.009Z,17.67
2019-02-06T07:41:17.626Z,16.82
2019-02-06T07:42:22.118Z,16.30
2019-02-06T07:43:26.691Z,18.12
2019-02-06T07:44:31.081Z,15.70
2019-02-06T07:45:35.375Z,14.30
2019-02-06T07:46:39.942Z,16.75
2019-02-06T07:47:44.319Z,17.07
2019-02-06T07:48:48.914Z,15.95
2019-02-06T07:49:53.225Z,15.32
2019-02-06T07:50:57.778Z,16.07
2019-02-06T07:52:02.358Z,16.70
2019-02-06T07:53:06.650Z,17.67
2019-02-06T07:54:11.225Z,15.53
2019-02-06T07:55:15.791Z,15.80
2019-02-06T07:56:20.356Z,15.45
2019-02-06T07:57:24.656Z,13.95
2019-02-06T07:58:29.332Z,16.37
2019-02-06T07:59:36.700Z,16.62
2019-02-06T08:00:41.307Z,18.02
2019-02-06T08:01:45.868Z,17.92
2019-02-06T08:02:50.464Z,16.65
2019-02-06T08:03:55.039Z,15.18
2019-02-06T08:04:59.873Z,14.85
2019-02-06T08:06:04.172Z,16.00
2019-02-06T08:07:08.228Z,14.98
2019-02-06T08:08:12.548Z,20.17
2019-02-06T08:09:17.136Z,17.92
2019-02-06T08:10:23.577Z,16.62
2019-02-06T08:11:28.145Z,16.85
2019-02-06T08:12:35.531Z,14.83
2019-02-06T08:13:40.098Z,16.05
2019-02-06T08:14:44.662Z,15.15
2019-02-06T08:15:49.504Z,16.32
2019-02-06T08:16:54.538Z,16.80
2019-02-06T08:17:59.025Z,15.65
2019-02-06T08:19:03.394Z,17.35
2019-02-06T08:20:09.044Z,16.05
2019-02-06T08:21:13.933Z,15.45
2019-02-06T08:22:18.518Z,17.25
2019-02-06T08:23:22.798Z,16.42
2019-02-06T08:24:27.404Z,14.85
2019-02-06T08:25:31.935Z,17.73
2019-02-06T08:26:36.536Z,15.65
2019-02-06T08:27:40.912Z,16.15
2019-02-06T08:28:45.788Z,16.23
2019-02-06T08:29:50.667Z,15.13
2019-02-06T08:30:55.493Z,15.18
2019-02-06T08:31:59.810Z,15.48
2019-02-06T08:33:04.372Z,16.25
2019-02-06T08:34:08.951Z,14.45
2019-02-06T08:35:13.802Z,15.15
2019-02-06T08:36:18.133Z,16.20
2019-02-06T08:37:22.694Z,18.02
2019-02-06T08:38:27.267Z,17.67
2019-02-06T08:39:31.580Z,15.83
2019-02-06T08:40:36.236Z,15.18
2019-02-06T08:41:40.538Z,18.12
2019-02-06T08:42:45.106Z,16.20
2019-02-06T08:43:49.705Z,14.55
2019-02-06T08:44:54.303Z,21.60
2019-02-06T08:45:59.152Z,14.15
2019-02-06T08:47:03.733Z,17.95
2019-02-06T08:48:08.036Z,17.85
2019-02-06T08:49:12.331Z,16.20
2019-02-06T08:50:17.256Z,13.62
2019-02-06T08:51:22.929Z,19.45
2019-02-06T08:52:27.500Z,16.37
2019-02-06T08:53:32.383Z,15.35
2019-02-06T08:54:37.015Z,14.70
2019-02-06T08:55:41.588Z,15.05
2019-02-06T08:56:45.981Z,14.58
2019-02-06T08:57:50.837Z,15.28
2019-02-06T08:58:55.144Z,14.95
2019-02-06T08:59:59.479Z,17.15
2019-02-06T09:01:03.812Z,17.52
2019-02-06T09:02:08.101Z,15.13
2019-02-06T09:03:12.968Z,15.80
2019-02-06T09:04:17.558Z,17.40
2019-02-06T09:05:22.425Z,17.23
2019-02-06T09:06:26.716Z,14.98
2019-02-06T09:07:31.250Z,15.05
2019-02-06T09:08:35.820Z,15.13
2019-02-06T09:09:43.460Z,15.43
2019-02-06T09:10:46.470Z,16.30
2019-02-06T09:11:50.768Z,16.05
2019-02-06T09:12:55.740Z,15.45
2019-02-06T09:14:00.018Z,14.25
2019-02-06T09:15:04.305Z,13.75
2019-02-06T09:16:08.914Z,14.33
2019-02-06T09:17:13.224Z,14.93
2019-02-06T09:18:17.786Z,15.35
2019-02-06T09:19:22.076Z,16.85
2019-02-06T09:20:26.855Z,14.53
2019-02-06T09:21:33.047Z,14.87
2019-02-06T09:22:37.895Z,16.12
2019-02-06T09:23:42.478Z,15.10
2019-02-06T09:24:47.590Z,15.05
2019-02-06T09:25:52.393Z,14.73
2019-02-06T09:26:56.984Z,15.00
2019-02-06T09:28:01.534Z,14.93
2019-02-06T09:29:06.206Z,13.85
2019-02-06T09:30:12.699Z,13.85
2019-02-06T09:31:17.014Z,17.00
2019-02-06T09:32:21.314Z,14.38
2019-02-06T09:33:26.483Z,19.30
2019-02-06T09:34:31.118Z,17.57
2019-02-06T09:35:35.538Z,14.60
2019-02-06T09:36:40.109Z,16.80
2019-02-06T09:37:44.451Z,12.73
2019-02-06T09:38:48.856Z,15.38
2019-02-06T09:39:53.220Z,15.65
2019-02-06T09:40:58.008Z,12.68
2019-02-06T09:42:02.859Z,13.22
2019-02-06T09:43:07.222Z,13.38
2019-02-06T09:44:11.772Z,15.70
2019-02-06T09:45:16.724Z,15.05
2019-02-06T09:46:21.312Z,16.62
2019-02-06T09:47:26.145Z,11.40
2019-02-06T09:48:31.502Z,16.45
2019-02-06T09:49:36.330Z,15.23
2019-02-06T09:50:41.385Z,14.07
2019-02-06T09:51:45.940Z,13.70
2019-02-06T09:52:51.060Z,13.90
2019-02-06T09:53:55.353Z,15.28
2019-02-06T09:54:59.920Z,13.35
2019-02-06T09:56:04.218Z,13.55
2019-02-06T09:57:09.050Z,14.95
2019-02-06T09:58:13.623Z,14.73
2019-02-06T09:59:18.588Z,15.63
2019-02-06T10:00:27.980Z,12.85
2019-02-06T10:01:32.414Z,13.08
2019-02-06T10:02:37.076Z,21.90
2019-02-06T10:03:41.398Z,11.75
2019-02-06T10:04:45.749Z,14.60
2019-02-06T10:05:50.315Z,12.35
2019-02-06T10:06:54.543Z,12.85
2019-02-06T10:07:59.129Z,14.55
2019-02-06T10:09:04.654Z,14.28
2019-02-06T10:10:15.262Z,15.25
2019-02-06T10:11:20.099Z,15.53
2019-02-06T10:12:24.426Z,14.33
2019-02-06T10:13:28.705Z,17.67
2019-02-06T10:14:33.893Z,12.65
2019-02-06T10:15:39.117Z,15.40
2019-02-06T10:16:43.481Z,14.75
2019-02-06T10:17:48.257Z,10.93
2019-02-06T10:18:53.235Z,11.25
2019-02-06T10:19:57.307Z,15.03
2019-02-06T10:21:01.892Z,13.03
2019-02-06T10:22:06.457Z,15.48
2019-02-06T10:23:11.128Z,15.13
2019-02-06T10:24:15.726Z,14.75
2019-02-06T10:25:20.326Z,14.58
2019-02-06T10:26:24.915Z,14.07
2019-02-06T10:27:29.205Z,14.83
2019-02-06T10:28:34.031Z,16.37
2019-02-06T10:29:38.088Z,14.80
2019-02-06T10:30:47.903Z,15.53
2019-02-06T10:31:52.462Z,13.08
2019-02-06T10:32:57.336Z,13.98
2019-02-06T10:34:01.662Z,12.93
2019-02-06T10:35:06.932Z,14.70
2019-02-06T10:36:11.255Z,13.62
2019-02-06T10:37:15.555Z,13.15
2019-02-06T10:38:19.885Z,11.83
2019-02-06T10:39:34.342Z,14.10
2019-02-06T10:40:30.689Z,13.55
2019-02-06T10:41:35.351Z,12.43
2019-02-06T10:42:39.636Z,12.95
2019-02-06T10:43:44.197Z,14.20
2019-02-06T10:44:48.781Z,16.10
2019-02-06T10:45:53.115Z,17.10
2019-02-06T10:46:57.699Z,13.88
2019-02-06T10:48:02.006Z,13.13
2019-02-06T10:49:06.694Z,14.30
2019-02-06T10:50:12.995Z,14.20
2019-02-06T10:51:17.840Z,13.72
2019-02-06T10:52:22.427Z,13.13
2019-02-06T10:53:27.647Z,15.40
2019-02-06T10:54:32.364Z,12.63
2019-02-06T10:55:36.923Z,13.38
2019-02-06T10:56:41.322Z,15.43
2019-02-06T10:57:45.894Z,14.35
2019-02-06T10:58:50.482Z,13.98
2019-02-06T10:59:55.331Z,14.30
2019-02-06T11:01:01.727Z,13.38
2019-02-06T11:02:05.949Z,14.73
2019-02-06T11:03:10.253Z,13.98
2019-02-06T11:04:14.862Z,12.55
2019-02-06T11:05:19.454Z,13.08
2019-02-06T11:06:23.748Z,14.50
2019-02-06T11:07:28.364Z,13.43
2019-02-06T11:08:32.772Z,14.95
2019-02-06T11:09:46.060Z,14.90
2019-02-06T11:10:43.568Z,14.98
2019-02-06T11:11:47.911Z,15.83
2019-02-06T11:12:52.229Z,15.00
2019-02-06T11:13:56.797Z,14.60
2019-02-06T11:15:01.373Z,14.47
2019-02-06T11:16:05.690Z,15.63
2019-02-06T11:17:09.891Z,18.12
2019-02-06T11:18:14.167Z,15.28
2019-02-06T11:19:19.025Z,15.30
2019-02-06T11:20:23.210Z,13.15
2019-02-06T11:21:27.802Z,12.95
2019-02-06T11:22:33.136Z,14.68
2019-02-06T11:23:37.428Z,13.68
2019-02-06T11:24:41.754Z,13.65
2019-02-06T11:25:46.145Z,13.98
2019-02-06T11:26:51.084Z,15.85
2019-02-06T11:27:56.067Z,13.50
2019-02-06T11:29:00.653Z,14.23
2019-02-06T11:30:06.925Z,13.55
2019-02-06T11:31:11.017Z,14.28
2019-02-06T11:32:15.590Z,14.07
2019-02-06T11:33:20.176Z,15.53
2019-02-06T11:34:24.767Z,14.07
2019-02-06T11:35:29.329Z,14.63
2019-02-06T11:36:33.683Z,14.93
2019-02-06T11:37:38.532Z,13.65
2019-02-06T11:38:42.853Z,13.32
2019-02-06T11:39:57.621Z,14.07
2019-02-06T11:40:54.535Z,15.10
2019-02-06T11:41:59.091Z,11.25
2019-02-06T11:43:03.951Z,14.35
2019-02-06T11:44:08.512Z,13.13
2019-02-06T11:45:15.138Z,13.53
2019-02-06T11:46:20.091Z,18.30
2019-02-06T11:47:24.877Z,14.98
2019-02-06T11:48:29.429Z,15.78
2019-02-06T11:49:38.677Z,15.68
2019-02-06T11:50:43.799Z,16.93
2019-02-06T11:51:48.094Z,15.15
2019-02-06T11:52:52.807Z,14.40
2019-02-06T11:53:57.390Z,15.03
2019-02-06T11:55:02.291Z,13.80
2019-02-06T11:56:06.582Z,12.70
2019-02-06T11:57:11.154Z,13.10
2019-02-06T11:58:15.447Z,14.68
2019-02-06T11:59:20.053Z,14.47
2019-02-06T12:00:43.540Z,14.70
2019-02-06T12:01:51.848Z,16.12
2019-02-06T12:02:56.160Z,15.40
2019-02-06T12:04:00.722Z,13.20
2019-02-06T12:05:05.370Z,15.10
2019-02-06T12:06:09.706Z,14.68
2019-02-06T12:07:14.001Z,15.70
2019-02-06T12:08:19.181Z,16.07
2019-02-06T12:09:24.336Z,14.33
2019-02-06T12:10:28.419Z,14.18
2019-02-06T12:11:33.118Z,15.15
2019-02-06T12:12:37.183Z,17.02
2019-02-06T12:13:41.778Z,14.75
2019-02-06T12:14:46.088Z,13.35
2019-02-06T12:15:50.145Z,12.55
2019-02-06T12:16:54.235Z,14.18
2019-02-06T12:17:59.116Z,15.63
2019-02-06T12:19:03.478Z,14.38
2019-02-06T12:20:11.323Z,17.80
2019-02-06T12:21:18.020Z,16.52
2019-02-06T12:22:22.195Z,13.95
2019-02-06T12:23:32.210Z,12.28
2019-02-06T12:24:33.184Z,12.85
2019-02-06T12:25:37.770Z,13.35
2019-02-06T12:26:42.621Z,13.53
2019-02-06T12:27:47.556Z,11.33
2019-02-06T12:28:52.103Z,12.10
2019-02-06T12:29:56.416Z,14.80
2019-02-06T12:31:00.766Z,14.38
2019-02-06T12:32:04.827Z,16.15
2019-02-06T12:33:08.879Z,15.05
2019-02-06T12:34:13.161Z,12.93
2019-02-06T12:35:18.029Z,13.40
2019-02-06T12:36:22.322Z,16.65
2019-02-06T12:37:26.890Z,13.10
2019-02-06T12:38:30.944Z,10.75
2019-02-06T12:39:35.062Z,11.97
2019-02-06T12:40:39.378Z,15.95
2019-02-06T12:41:44.204Z,12.73
2019-02-06T12:42:48.844Z,12.37
2019-02-06T12:43:53.140Z,13.25
2019-02-06T12:44:59.080Z,13.68
2019-02-06T12:46:03.628Z,12.80
2019-02-06T12:47:08.762Z,12.45
2019-02-06T12:48:13.335Z,11.18
2019-02-06T12:49:17.905Z,11.83
2019-02-06T12:50:22.550Z,13.78
2019-02-06T12:51:27.102Z,15.80
2019-02-06T12:52:31.554Z,11.88
2019-02-06T12:53:35.654Z,13.65
2019-02-06T12:54:40.041Z,11.97
2019-02-06T12:55:44.529Z,12.00
2019-02-06T12:56:49.132Z,12.10
2019-02-06T12:57:53.690Z,13.65
2019-02-06T12:58:58.262Z,11.75
2019-02-06T13:00:02.853Z,12.95
2019-02-06T13:01:07.127Z,12.93
2019-02-06T13:02:11.703Z,14.75
2019-02-06T13:03:16.561Z,10.55
2019-02-06T13:04:20.857Z,10.68
2019-02-06T13:05:25.525Z,11.30
2019-02-06T13:06:30.138Z,13.03
2019-02-06T13:07:34.867Z,14.75
2019-02-06T13:08:39.441Z,10.45
2019-02-06T13:09:44.065Z,12.25
2019-02-06T13:10:48.111Z,10.48
2019-02-06T13:11:52.975Z,10.82
2019-02-06T13:12:57.356Z,11.85
2019-02-06T13:14:02.038Z,13.55
2019-02-06T13:15:06.962Z,13.85
2019-02-06T13:16:11.161Z,13.10
2019-02-06T13:17:15.930Z,11.85
2019-02-06T13:18:20.488Z,11.60
2019-02-06T13:19:25.426Z,10.20
2019-02-06T13:20:30.095Z,13.80
2019-02-06T13:21:35.389Z,15.30
2019-02-06T13:22:40.005Z,10.18
2019-02-06T13:23:44.585Z,12.07
2019-02-06T13:24:48.891Z,10.75
2019-02-06T13:25:53.871Z,13.50
2019-02-06T13:26:58.377Z,11.55
2019-02-06T13:28:02.437Z,10.78
2019-02-06T13:29:07.116Z,13.30
2019-02-06T13:30:15.207Z,11.78
2019-02-06T13:31:20.084Z,11.30
2019-02-06T13:32:24.938Z,9.95
2019-02-06T13:33:29.773Z,10.75
2019-02-06T13:34:34.459Z,10.43
2019-02-06T13:35:38.915Z,12.98
2019-02-06T13:36:43.475Z,13.95
2019-02-06T13:37:48.110Z,10.82
2019-02-06T13:38:53.000Z,11.22
2019-02-06T13:39:57.292Z,11.75
2019-02-06T13:41:02.108Z,12.18
2019-02-06T13:42:06.402Z,11.15
2019-02-06T13:43:10.977Z,14.58
2019-02-06T13:44:15.548Z,10.05
2019-02-06T13:45:22.275Z,13.18
2019-02-06T13:46:26.927Z,10.95
2019-02-06T13:47:31.900Z,12.88
2019-02-06T13:48:36.442Z,10.48
2019-02-06T13:49:41.033Z,11.43
2019-02-06T13:50:45.656Z,12.13
2019-02-06T13:51:49.691Z,9.80
2019-02-06T13:52:54.278Z,11.03
2019-02-06T13:53:58.832Z,10.60
2019-02-06T13:55:03.426Z,12.13
2019-02-06T13:56:07.972Z,10.05
2019-02-06T13:57:12.274Z,11.53
2019-02-06T13:58:20.261Z,9.63
2019-02-06T13:59:22.675Z,10.43
2019-02-06T14:00:29.299Z,10.18
2019-02-06T14:01:37.515Z,10.75
2019-02-06T14:02:42.103Z,13.25
2019-02-06T14:03:46.658Z,11.60
2019-02-06T14:04:51.509Z,11.40
2019-02-06T14:05:56.287Z,11.35
2019-02-06T14:07:00.862Z,11.60
2019-02-06T14:08:07.892Z,13.25
2019-02-06T14:09:22.600Z,13.28